Qaarsut

KL  EN  DA
ASIAQ
Weather Now GREENLAND SURVEY
Updated [WGT/WGST] Temperature [°C] Wind [m/s] Air pressure [hPa] Relative humidity [%] Precipitation [mm]
Present Wind chill Speed Max
25.02 08:00-18,7-24,52,1 ⇖2,91007500,0
25.02 07:00-19,1-23,81,6 ⇖2,11006520,0
25.02 06:00-18,7-24,62,2 ⇑3,81006500,0
25.02 05:00-17,7-21,61,4 ⇗2,71006470,0
25.02 04:00-18,1-24,82,7 ⇖4,41006510,0
25.02 03:00-18,6-26,53,5 ⇖5,21005520,0
25.02 02:00-18,7-24,72,2 ⇑2,91005530,0
25.02 01:00-19,70,01,1 ⇑2,31004480,0
25.02 00:00-18,9-23,81,7 ⇖2,11004500,0
24.02 23:00-18,70,00,4 ⇘1,21003450,0
24.02 22:00-18,6-24,32,1 ⇖3,11003490,0
24.02 21:00-18,10,01,3 ⇑2,31002450,0
24.02 20:00-17,80,00,5 ⇑1,61001510,0
24.02 19:00-18,0-22,01,4 ⇗2,51000530,0
24.02 18:00-17,4-21,81,6 ⇗2,41000570,0
24.02 17:00-17,7-25,83,8 ⇗4,7999610,0
24.02 16:00-18,4-27,44,4 ⇗5,2998530,0
24.02 15:00-17,50,01,3 ⇑2,1997530,0
24.02 14:00-17,6-22,81,9 ⇑2,8996590,0
24.02 13:00-17,2-24,23,0 ⇗3,8995480,0
24.02 12:00-17,9-26,23,9 ⇗4,5994440,0
24.02 11:00-16,7-22,42,3 ⇗2,8994470,0
24.02 10:00-16,7-22,72,4 ⇑3,1993580,0
24.02 09:00-16,6-22,52,4 ⇗3,0993520,0
24.02 08:00-17,3-24,02,8 ⇗3,6992480,1
Position: (70.73333333,-52.7)

[Back]